Time;durP1;ratioP1;P1;durP2;ratioP2;P2;SDS_P1;SDS_P2;PMS_P1;PMS_P2;Temp;Humidity;BMP_temperature;BMP_pressure;BME280_temperature;BME280_humidity;BME280_pressure;Samples;Min_cycle;Max_cycle;Signal;HPM_P1;HPM_P2
2022/06/03 00:02:47;;;;;;;6.88;5.60;;;;;;;12.73;60.29;101746.94;5032099;28;20044;-93
2022/06/03 00:05:31;;;;;;;8.00;5.60;;;;;;;12.71;59.85;101741.66;5029487;28;20031;-93
2022/06/03 00:08:13;;;;;;;5.95;5.43;;;;;;;12.66;60.45;101743.66;5008237;28;20038;-94
2022/06/03 00:11:10;;;;;;;7.00;5.50;;;;;;;12.63;60.07;101738.47;5005260;28;20015;-93
2022/06/03 00:13:54;;;;;;;6.47;5.80;;;;;;;12.59;60.12;101736.88;5004378;28;20081;-94
2022/06/03 00:16:54;;;;;;;7.90;6.10;;;;;;;12.57;60.19;101737.88;4998888;28;20106;-92
2022/06/03 00:19:35;;;;;;;7.15;5.97;;;;;;;12.49;61.30;101745.34;5004230;28;20097;-93
2022/06/03 00:22:25;;;;;;;7.00;5.88;;;;;;;12.49;61.30;101738.22;5006242;28;20030;-94
2022/06/03 00:25:10;;;;;;;7.97;6.00;;;;;;;12.49;61.33;101748.03;5005206;28;20403;-93
2022/06/03 00:28:10;;;;;;;8.68;6.07;;;;;;;12.44;61.01;101738.41;5023352;28;20034;-94
2022/06/03 00:30:44;;;;;;;7.93;5.32;;;;;;;12.38;61.37;101730.69;5025774;28;20030;-93
2022/06/03 00:33:41;;;;;;;6.35;5.45;;;;;;;12.38;61.26;101741.38;5027869;28;20014;-93
2022/06/03 00:36:28;;;;;;;6.70;5.53;;;;;;;12.36;61.49;101732.53;5030347;28;20006;-93
2022/06/03 00:39:06;;;;;;;7.68;6.20;;;;;;;12.33;62.44;101731.81;5029005;28;20037;-94
2022/06/03 00:42:01;;;;;;;5.75;5.18;;;;;;;12.34;61.43;101739.78;5022352;28;20037;-93
2022/06/03 00:44:40;;;;;;;6.20;5.60;;;;;;;12.30;61.84;101740.84;5014923;28;20026;-93
2022/06/03 00:47:34;;;;;;;5.95;5.10;;;;;;;12.31;61.89;101739.03;5012680;28;20026;-94
2022/06/03 00:50:11;;;;;;;6.10;5.50;;;;;;;12.28;63.11;101742.69;5018283;28;20057;-93
2022/06/03 00:52:58;;;;;;;6.57;5.90;;;;;;;12.23;62.87;101739.38;5018910;28;20084;-93
2022/06/03 00:55:37;;;;;;;7.90;6.15;;;;;;;12.24;62.71;101734.88;5020776;28;20033;-92
2022/06/03 00:58:28;;;;;;;6.20;5.53;;;;;;;12.21;63.45;101738.56;5033690;28;20041;-93
2022/06/03 01:01:23;;;;;;;6.78;6.18;;;;;;;12.23;62.65;101730.50;5033218;28;20022;-93
2022/06/03 01:03:57;;;;;;;6.30;5.70;;;;;;;12.18;63.21;101728.88;5033707;28;20042;-93
2022/06/03 01:06:29;;;;;;;7.40;5.38;;;;;;;12.17;63.93;101728.97;5032415;28;20048;-93
2022/06/03 01:09:22;;;;;;;7.45;6.32;;;;;;;12.21;63.19;101725.22;5033718;28;20033;-93
2022/06/03 01:12:09;;;;;;;6.30;5.63;;;;;;;12.20;63.57;101720.81;5033131;28;20014;-93
2022/06/03 01:14:46;;;;;;;6.45;5.85;;;;;;;12.20;63.13;101711.00;5033118;28;20097;-92
2022/06/03 01:17:27;;;;;;;6.90;6.10;;;;;;;12.14;63.47;101705.06;5031739;28;20030;-92
2022/06/03 01:20:01;;;;;;;6.38;5.78;;;;;;;12.15;64.32;101709.47;5033408;28;20049;-93
2022/06/03 01:22:58;;;;;;;6.85;6.15;;;;;;;12.11;64.09;101710.53;5033354;28;20052;-94
2022/06/03 01:25:41;;;;;;;6.88;6.18;;;;;;;12.06;64.02;101701.88;5031190;28;20037;-93
2022/06/03 01:28:39;;;;;;;6.85;6.15;;;;;;;12.03;63.76;101702.00;5030875;28;20042;-93
2022/06/03 01:31:41;;;;;;;7.43;6.35;;;;;;;12.03;63.71;101704.66;5032629;28;20050;-93
2022/06/03 01:34:44;;;;;;;7.00;5.88;;;;;;;12.04;63.50;101701.06;5033136;28;20045;-93
2022/06/03 01:37:14;;;;;;;7.13;6.20;;;;;;;12.03;64.60;101697.53;5013038;28;20049;-94
2022/06/03 01:40:08;;;;;;;6.88;5.80;;;;;;;12.03;64.14;101696.66;5011955;28;20058;-93
2022/06/03 01:43:10;;;;;;;6.20;5.40;;;;;;;12.04;64.04;101696.59;5005609;28;20045;-93
2022/06/03 01:46:18;;;;;;;8.27;6.22;;;;;;;12.02;63.57;101695.78;5016222;28;20292;-93
2022/06/03 01:48:46;;;;;;;6.82;5.97;;;;;;;11.95;64.81;101696.97;4983531;28;20027;-93
2022/06/03 01:51:35;;;;;;;7.32;6.53;;;;;;;11.91;64.77;101696.28;4984521;28;20052;-93
2022/06/03 01:54:19;;;;;;;8.35;6.40;;;;;;;11.87;64.64;101685.78;4985436;28;20042;-93
2022/06/03 01:57:09;;;;;;;7.07;6.30;;;;;;;11.83;64.54;101693.06;4991369;28;20453;-93
2022/06/03 01:59:49;;;;;;;8.20;6.95;;;;;;;11.77;65.43;101682.59;4990784;28;20023;-93
2022/06/03 02:02:45;;;;;;;8.18;7.15;;;;;;;11.71;65.49;101683.75;4986847;28;20043;-93
2022/06/03 02:05:44;;;;;;;8.68;6.82;;;;;;;11.72;65.36;101690.81;4985230;28;20038;-93
2022/06/03 02:08:24;;;;;;;7.30;6.60;;;;;;;11.68;65.91;101681.19;4991328;28;20535;-93
2022/06/03 02:11:30;;;;;;;8.10;7.30;;;;;;;11.69;65.11;101672.25;4986481;28;20098;-93
2022/06/03 02:14:33;;;;;;;7.57;6.88;;;;;;;11.67;65.47;101673.28;4979584;28;20038;-92
2022/06/03 02:17:28;;;;;;;7.57;6.78;;;;;;;11.63;65.30;101666.34;4988573;28;20050;-93
2022/06/03 02:20:21;;;;;;;7.35;6.65;;;;;;;11.55;66.35;101663.13;4991684;28;20069;-94
2022/06/03 02:23:08;;;;;;;7.50;6.80;;;;;;;11.47;66.73;101666.09;5004413;28;20030;-93
2022/06/03 02:25:51;;;;;;;10.38;6.90;;;;;;;11.44;66.85;101668.88;5024120;28;20069;-92
2022/06/03 02:28:50;;;;;;;8.10;7.30;;;;;;;11.41;66.74;101672.56;5032439;28;20081;-92
2022/06/03 02:31:45;;;;;;;9.30;6.95;;;;;;;11.39;66.74;101663.75;5031853;28;20054;-92
2022/06/03 02:34:41;;;;;;;8.20;7.15;;;;;;;11.33;67.34;101669.34;5030752;28;20093;-92
2022/06/03 02:37:25;;;;;;;8.18;7.05;;;;;;;11.27;67.95;101660.72;5013886;28;20037;-92
2022/06/03 02:40:01;;;;;;;8.65;7.15;;;;;;;11.23;68.03;101663.50;5012661;28;20030;-92
2022/06/03 02:43:07;;;;;;;8.10;6.95;;;;;;;11.19;67.48;101651.22;5013425;28;20035;-92
2022/06/03 02:46:09;;;;;;;8.13;7.10;;;;;;;11.20;67.19;101654.75;5025043;28;20036;-91
2022/06/03 02:48:46;;;;;;;8.07;7.28;;;;;;;11.15;68.20;101654.94;5018066;28;20052;-92
2022/06/03 02:51:20;;;;;;;7.57;6.82;;;;;;;11.12;68.45;101659.53;5015042;28;20069;-91
2022/06/03 02:54:20;;;;;;;9.20;7.63;;;;;;;11.10;68.21;101664.06;5014365;28;20021;-93
2022/06/03 02:57:03;;;;;;;8.68;7.10;;;;;;;11.07;68.50;101661.50;5030699;28;20094;-93
2022/06/03 02:59:49;;;;;;;7.45;6.65;;;;;;;11.04;68.54;101659.84;5023414;28;20054;-93
2022/06/03 03:02:42;;;;;;;9.93;8.15;;;;;;;10.99;68.86;101656.47;5034672;28;20040;-92
2022/06/03 03:05:17;;;;;;;7.57;6.78;;;;;;;10.96;68.97;101667.28;5031607;28;20608;-92
2022/06/03 03:08:07;;;;;;;8.68;7.60;;;;;;;10.97;68.83;101669.88;5030417;28;20120;-91
2022/06/03 03:10:35;;;;;;;10.45;7.43;;;;;;;10.93;69.72;101662.94;5033958;28;20044;-90
2022/06/03 03:13:38;;;;;;;9.10;7.68;;;;;;;10.90;69.04;101655.06;5031072;28;20030;-90
2022/06/03 03:16:22;;;;;;;10.23;7.82;;;;;;;10.83;69.86;101653.59;5034850;28;20028;-92
2022/06/03 03:18:58;;;;;;;8.95;8.05;;;;;;;10.80;69.67;101648.38;5034200;28;20034;-92
2022/06/03 03:21:49;;;;;;;9.15;8.15;;;;;;;10.77;70.15;101648.47;5034684;28;20072;-93
2022/06/03 03:24:57;;;;;;;10.20;8.35;;;;;;;10.71;70.07;101652.25;5034836;28;20017;-93
2022/06/03 03:27:41;;;;;;;8.48;7.68;;;;;;;10.70;70.23;101646.97;5035640;28;20018;-91
2022/06/03 03:30:19;;;;;;;8.95;7.80;;;;;;;10.64;70.94;101640.09;5028462;28;20038;-91
2022/06/03 03:33:01;;;;;;;8.70;7.90;;;;;;;10.64;71.41;101633.91;5030967;28;20108;-92
2022/06/03 03:35:45;;;;;;;10.90;8.38;;;;;;;10.56;71.69;101639.53;5034116;28;20021;-93
2022/06/03 03:38:30;;;;;;;9.43;8.18;;;;;;;10.59;70.82;101642.06;5023735;28;20044;-93
2022/06/03 03:41:10;;;;;;;8.85;7.93;;;;;;;10.58;71.58;101636.81;5028703;28;20038;-92
2022/06/03 03:44:01;;;;;;;9.30;8.40;;;;;;;10.55;71.22;101640.47;5034071;28;20072;-92
2022/06/03 03:46:58;;;;;;;9.20;7.88;;;;;;;10.57;70.88;101635.94;5015394;28;20034;-93
2022/06/03 03:50:01;;;;;;;9.18;8.13;;;;;;;10.57;71.15;101645.72;5015401;28;20084;-92
2022/06/03 03:52:44;;;;;;;8.60;7.80;;;;;;;10.55;71.67;101636.94;5015351;28;20022;-92
2022/06/03 03:55:36;;;;;;;9.98;8.93;;;;;;;10.53;71.65;101639.63;5025246;28;20030;-91
2022/06/03 03:58:25;;;;;;;8.95;8.15;;;;;;;10.50;72.26;101636.25;5034915;28;20085;-93
2022/06/03 04:00:59;;;;;;;8.98;8.07;;;;;;;10.50;71.97;101637.09;5033878;28;20357;-92
2022/06/03 04:03:46;;;;;;;9.00;8.20;;;;;;;10.52;71.92;101629.06;5034456;28;20115;-91
2022/06/03 04:06:53;;;;;;;9.52;8.52;;;;;;;10.53;71.79;101622.78;5034292;28;20341;-91
2022/06/03 04:09:56;;;;;;;10.82;8.60;;;;;;;10.54;71.87;101629.88;5033804;28;20434;-91
2022/06/03 04:12:41;;;;;;;9.90;8.90;;;;;;;10.51;72.22;101619.34;5034415;28;20310;-92
2022/06/03 04:15:26;;;;;;;9.68;8.73;;;;;;;10.50;72.86;101620.28;5032690;28;20090;-93
2022/06/03 04:17:57;;;;;;;10.70;9.15;;;;;;;10.51;73.10;101619.34;5033219;28;20097;-93
2022/06/03 04:20:29;;;;;;;9.63;8.68;;;;;;;10.54;73.19;101622.75;5033170;28;20037;-93
2022/06/03 04:23:29;;;;;;;8.35;7.53;;;;;;;10.58;72.76;101621.72;5032539;28;20126;-91
2022/06/03 04:26:27;;;;;;;10.63;9.15;;;;;;;10.58;72.84;101611.06;4991217;28;20058;-91
2022/06/03 04:29:07;;;;;;;9.73;8.68;;;;;;;10.59;72.82;101614.59;5014475;28;20042;-92
2022/06/03 04:32:06;;;;;;;9.32;8.40;;;;;;;10.65;72.54;101607.22;5014035;28;20066;-92
2022/06/03 04:35:12;;;;;;;11.57;8.45;;;;;;;10.72;72.40;101611.38;5022382;28;20030;-91
2022/06/03 04:38:13;;;;;;;10.23;9.00;;;;;;;10.75;72.72;101613.06;5032955;28;20034;-92
2022/06/03 04:40:45;;;;;;;10.30;9.20;;;;;;;10.80;72.89;101621.75;5031941;28;20025;-91
2022/06/03 04:43:40;;;;;;;12.93;8.85;;;;;;;10.83;72.66;101629.63;5023251;28;20034;-92
2022/06/03 04:46:24;;;;;;;9.68;8.68;;;;;;;10.88;73.13;101626.75;5005809;28;20034;-91
2022/06/03 04:48:55;;;;;;;10.07;9.07;;;;;;;10.96;72.85;101636.19;5012731;28;20042;-92
2022/06/03 04:51:42;;;;;;;11.13;8.63;;;;;;;11.06;72.08;101633.16;5012256;28;20044;-91
2022/06/03 04:54:37;;;;;;;9.30;8.27;;;;;;;11.16;72.33;101634.50;5018477;28;20049;-93
2022/06/03 04:57:37;;;;;;;10.52;9.07;;;;;;;11.26;72.08;101627.88;5031321;28;20093;-92
2022/06/03 05:00:05;;;;;;;10.13;8.70;;;;;;;11.33;71.56;101632.03;5020314;28;20077;-92
2022/06/03 05:02:48;;;;;;;10.82;8.68;;;;;;;11.42;71.96;101628.97;5013472;28;20048;-91
2022/06/03 05:05:32;;;;;;;9.35;8.30;;;;;;;11.55;71.57;101633.78;5013245;28;20456;-91
2022/06/03 05:08:29;;;;;;;9.40;8.38;;;;;;;11.65;71.27;101635.13;5021044;28;20076;-92
2022/06/03 05:11:12;;;;;;;9.82;8.85;;;;;;;11.76;70.71;101637.34;5030779;28;20125;-92
2022/06/03 05:13:57;;;;;;;11.43;8.65;;;;;;;11.83;70.45;101625.50;5029035;28;20018;-92
2022/06/03 05:16:29;;;;;;;9.30;8.40;;;;;;;11.94;70.25;101629.41;5018633;28;20022;-93
2022/06/03 05:18:54;;;;;;;11.80;7.70;;;;;;;12.07;70.27;101624.41;5012841;28;20037;-92
2022/06/03 05:21:38;;;;;;;9.23;8.20;;;;;;;12.15;69.31;101624.06;5012263;28;20050;-92
2022/06/03 05:24:16;;;;;;;;;;;;;;;12.23;69.11;101616.59;5009035;28;20033;-92
2022/06/03 05:27:18;;;;;;;10.25;8.43;;;;;;;12.37;68.85;101611.50;5009618;28;20375;-92
2022/06/03 05:30:11;;;;;;;9.32;8.18;;;;;;;12.50;68.11;101616.25;5009246;28;20036;-93
2022/06/03 05:33:09;;;;;;;8.90;8.00;;;;;;;12.62;68.25;101623.69;5009269;28;20053;-93
2022/06/03 05:35:44;;;;;;;10.63;8.48;;;;;;;12.74;67.65;101619.56;5009325;28;20041;-92
2022/06/03 05:38:27;;;;;;;12.15;8.18;;;;;;;12.84;67.37;101612.88;5009359;28;20085;-90
2022/06/03 05:41:05;;;;;;;10.45;8.05;;;;;;;12.96;67.19;101610.47;5009317;28;20034;-92
2022/06/03 05:43:41;;;;;;;9.63;8.13;;;;;;;13.10;67.25;101615.13;4997668;28;20104;-92
2022/06/03 05:46:14;;;;;;;11.02;8.18;;;;;;;13.23;65.96;101609.22;5018569;28;20089;-93
2022/06/03 05:48:45;;;;;;;8.93;8.00;;;;;;;13.35;65.52;101612.13;5018064;28;20460;-93
2022/06/03 05:51:32;;;;;;;11.82;7.75;;;;;;;13.52;65.70;101607.75;5015231;28;20072;-92
2022/06/03 05:54:00;;;;;;;9.52;8.27;;;;;;;13.66;64.70;101610.56;5012197;28;20037;-93
2022/06/03 05:56:34;;;;;;;10.88;7.63;;;;;;;13.78;63.96;101615.28;5013423;28;20459;-92
2022/06/03 05:59:05;;;;;;;8.18;7.38;;;;;;;13.95;63.78;101614.41;5013915;28;20033;-92
2022/06/03 06:01:57;;;;;;;9.98;7.82;;;;;;;14.13;62.78;101617.94;5014114;28;20037;-93
2022/06/03 06:04:57;;;;;;;9.13;7.63;;;;;;;14.30;62.53;101615.22;5011725;28;20598;-92
2022/06/03 06:07:31;;;;;;;9.13;7.18;;;;;;;14.51;61.27;101618.56;5013738;28;20038;-93
2022/06/03 06:10:34;;;;;;;8.93;7.28;;;;;;;14.69;61.15;101609.50;5013031;28;20041;-93
2022/06/03 06:13:20;;;;;;;8.48;7.47;;;;;;;14.85;59.81;101606.81;5010823;28;20127;-93
2022/06/03 06:16:01;;;;;;;10.35;7.30;;;;;;;15.02;60.04;101605.00;5014070;28;20036;-94
2022/06/03 06:18:44;;;;;;;10.05;7.70;;;;;;;15.24;59.65;101621.56;5013249;28;20026;-92
2022/06/03 06:21:38;;;;;;;10.30;7.47;;;;;;;15.37;58.83;101619.03;5013972;28;20126;-94
2022/06/03 06:24:22;;;;;;;8.27;7.47;;;;;;;15.53;58.12;101619.00;5014890;28;20063;-92
2022/06/03 06:27:09;;;;;;;8.15;7.22;;;;;;;15.69;57.99;101611.81;5013699;28;20387;-92
2022/06/03 06:29:49;;;;;;;8.35;7.65;;;;;;;15.89;57.73;101613.28;5014167;28;20029;-93
2022/06/03 06:32:32;;;;;;;9.18;7.72;;;;;;;16.11;56.48;101611.00;5011574;28;20459;-93
2022/06/03 06:35:07;;;;;;;8.63;7.22;;;;;;;16.24;55.93;101623.66;5010943;28;20092;-93
2022/06/03 06:38:03;;;;;;;10.57;7.35;;;;;;;16.43;56.30;101624.25;5012276;28;20026;-93
2022/06/03 06:41:03;;;;;;;9.77;7.38;;;;;;;16.60;55.39;101609.75;5006180;28;20026;-94
2022/06/03 06:43:56;;;;;;;8.90;7.60;;;;;;;16.78;54.95;101616.66;4993277;28;20118;-93
2022/06/03 06:46:40;;;;;;;8.63;7.00;;;;;;;16.89;54.38;101602.53;4991987;28;20113;-92
2022/06/03 06:49:17;;;;;;;8.25;7.45;;;;;;;16.97;53.89;101605.56;4991614;28;20030;-93
2022/06/03 06:51:57;;;;;;;8.07;7.28;;;;;;;17.00;53.25;101613.41;4991014;28;20033;-93
2022/06/03 06:54:22;;;;;;;8.55;7.35;;;;;;;17.27;52.21;101602.66;5007415;28;20048;-93
2022/06/03 06:56:55;;;;;;;8.25;7.38;;;;;;;17.39;52.12;101604.53;5010081;28;20048;-93
2022/06/03 06:59:27;;;;;;;9.65;7.63;;;;;;;17.54;51.55;101615.22;5011406;28;20068;-93
2022/06/03 07:02:06;;;;;;;7.60;6.90;;;;;;;17.71;52.86;101608.69;5010436;28;20026;-92
2022/06/03 07:04:37;;;;;;;8.43;7.13;;;;;;;17.87;51.24;101615.63;5009159;28;20045;-92
2022/06/03 07:07:20;;;;;;;7.90;7.10;;;;;;;18.17;51.59;101606.38;5010992;28;20105;-92
2022/06/03 07:10:00;;;;;;;8.23;6.95;;;;;;;18.33;50.75;101609.69;5012003;28;20117;-93
2022/06/03 07:12:35;;;;;;;8.18;7.30;;;;;;;18.62;50.32;101606.75;5010453;28;20022;-92
2022/06/03 07:15:56;;;;;;;11.10;7.63;;;;;;;18.62;50.64;101607.59;4991904;28;20053;-94
2022/06/03 07:21:39;;;;;;;7.60;6.88;;;;;;;18.71;49.53;101598.00;4951807;29;20058;-95
2022/06/03 07:24:14;;;;;;;10.80;7.63;;;;;;;18.69;48.52;101589.16;4953346;28;20043;-94
2022/06/03 07:26:43;;;;;;;7.38;6.68;;;;;;;19.04;47.97;101589.28;4954203;29;20054;-92
2022/06/03 07:29:23;;;;;;;7.78;6.97;;;;;;;19.44;48.05;101585.38;4951873;29;20091;-93
2022/06/03 07:31:59;;;;;;;9.80;6.45;;;;;;;19.64;46.92;101588.31;4950735;29;20376;-93
2022/06/03 07:34:27;;;;;;;7.57;6.85;;;;;;;20.09;46.72;101596.50;4951426;28;20035;-92
2022/06/03 07:37:08;;;;;;;10.02;7.00;;;;;;;20.71;46.22;101592.47;4951298;29;20111;-92
2022/06/03 07:39:54;;;;;;;8.40;6.88;;;;;;;21.26;43.25;101587.88;4938800;29;20074;-93
2022/06/03 07:42:36;;;;;;;11.50;7.13;;;;;;;21.63;43.63;101591.06;4934617;28;20042;-91
2022/06/03 07:45:34;;;;;;;8.38;7.03;;;;;;;21.97;41.89;101590.00;4950163;29;20051;-94
2022/06/03 07:48:01;;;;;;;7.93;6.72;;;;;;;22.21;40.81;101579.75;4945728;29;20043;-93
2022/06/03 07:50:30;;;;;;;7.95;6.60;;;;;;;22.69;39.92;101572.75;4952000;29;20054;-93
2022/06/03 07:53:06;;;;;;;8.95;6.57;;;;;;;22.94;39.83;101587.69;5001036;28;20069;-91
2022/06/03 07:55:32;;;;;;;9.75;6.80;;;;;;;23.27;38.70;101583.72;5010425;28;20030;-92
2022/06/03 07:58:06;;;;;;;7.22;6.30;;;;;;;23.67;38.15;101588.19;5009962;28;20067;-93
2022/06/03 08:00:38;;;;;;;6.65;6.00;;;;;;;24.13;36.96;101592.81;5009441;28;20042;-94
2022/06/03 08:03:07;;;;;;;8.80;6.97;;;;;;;24.66;36.00;101585.84;5009502;28;20025;-92
2022/06/03 08:05:34;;;;;;;8.48;5.75;;;;;;;24.98;35.17;101579.94;5009765;28;20057;-92
2022/06/03 08:10:57;;;;;;;8.23;5.53;;;;;;;25.94;35.48;101569.22;5010757;28;20115;-93
2022/06/03 08:13:25;;;;;;;6.47;5.70;;;;;;;26.20;33.82;101563.75;5009561;28;20034;-94
2022/06/03 08:15:56;;;;;;;7.93;6.50;;;;;;;25.77;33.15;101558.22;5008896;28;20037;-91
2022/06/03 08:18:25;;;;;;;6.43;5.82;;;;;;;26.13;32.89;101558.09;5011769;28;20053;-93
2022/06/03 08:20:56;;;;;;;7.13;6.43;;;;;;;25.75;33.89;101546.59;5009858;28;20030;-93
2022/06/03 08:23:22;;;;;;;6.70;6.10;;;;;;;26.15;33.69;101558.78;5008482;28;20062;-93
2022/06/03 08:25:52;;;;;;;8.20;5.72;;;;;;;26.48;32.65;101562.53;5009808;28;20036;-91
2022/06/03 08:28:21;;;;;;;8.20;6.10;;;;;;;26.92;32.40;101553.28;5011340;28;20144;-92
2022/06/03 08:30:50;;;;;;;6.05;5.47;;;;;;;27.35;31.54;101559.53;5008674;28;20088;-94
2022/06/03 08:33:26;;;;;;;6.43;5.60;;;;;;;27.69;30.37;101551.97;5008682;28;20033;-93
2022/06/03 08:35:52;;;;;;;5.80;5.20;;;;;;;27.73;31.40;101552.53;5009234;28;20414;-93
2022/06/03 08:38:24;;;;;;;6.43;5.53;;;;;;;28.12;30.44;101555.31;5000293;28;20432;-93
2022/06/03 08:41:15;;;;;;;6.43;5.32;;;;;;;28.60;29.68;101561.69;4989617;28;20472;-93
2022/06/03 08:44:00;;;;;;;6.22;5.63;;;;;;;28.92;28.27;101549.66;4991744;28;20046;-93
2022/06/03 08:46:35;;;;;;;5.68;5.18;;;;;;;29.45;28.72;101547.94;4992235;28;20030;-93
2022/06/03 08:49:07;;;;;;;6.47;5.43;;;;;;;29.77;27.60;101538.56;4992037;28;20476;-94
2022/06/03 08:51:42;;;;;;;7.47;5.50;;;;;;;30.18;27.90;101551.00;4992868;28;20456;-93
2022/06/03 08:54:35;;;;;;;7.43;5.72;;;;;;;30.88;28.36;101553.19;4991392;28;20027;-94
2022/06/03 08:57:05;;;;;;;;;;;;;;;31.66;27.18;101559.69;4985218;28;20130;-94
2022/06/03 09:00:00;;;;;;;8.60;6.93;;;;;;;31.68;27.03;101554.81;4991124;28;19921;-94
2022/06/03 09:02:37;;;;;;;6.55;5.20;;;;;;;31.75;25.63;101550.22;5003222;28;20061;-94
2022/06/03 09:05:10;;;;;;;5.72;5.07;;;;;;;31.21;25.70;101552.69;5009830;28;20029;-94
2022/06/03 09:07:41;;;;;;;;;;;;;;;32.01;26.93;101558.88;5009609;28;20029;-94
2022/06/03 09:10:07;;;;;;;5.72;4.45;;;;;;;32.12;24.95;101561.09;5009562;28;19913;-95
2022/06/03 09:12:32;;;;;;;5.20;4.70;;;;;;;31.81;24.40;101550.44;5007904;28;20034;-93
2022/06/03 09:15:10;;;;;;;4.80;4.40;;;;;;;31.67;25.95;101553.13;5009466;28;20036;-93
2022/06/03 09:17:49;;;;;;;4.85;4.35;;;;;;;32.12;24.36;101556.41;5011237;28;20289;-93
2022/06/03 09:20:21;;;;;;;3.80;3.50;;;;;;;31.63;24.39;101557.31;5015802;28;20033;-94
2022/06/03 09:22:50;;;;;;;3.80;3.38;;;;;;;31.36;23.75;101556.25;5013424;28;20125;-92
2022/06/03 09:25:17;;;;;;;4.43;4.10;;;;;;;30.99;24.83;101554.59;5015198;28;20029;-93
2022/06/03 09:27:46;;;;;;;5.00;4.32;;;;;;;31.90;24.37;101554.81;5013435;28;20049;-94
2022/06/03 09:30:15;;;;;;;6.72;4.32;;;;;;;32.46;23.13;101551.97;5016928;28;20030;-95
2022/06/03 09:32:49;;;;;;;5.18;4.68;;;;;;;32.63;22.87;101555.22;5014325;28;20364;-92
2022/06/03 09:35:20;;;;;;;5.57;5.00;;;;;;;32.62;23.52;101543.34;5016099;28;20387;-95
2022/06/03 09:37:50;;;;;;;4.85;4.32;;;;;;;33.22;21.94;101549.84;5015462;28;20074;-95
2022/06/03 09:40:22;;;;;;;3.95;3.58;;;;;;;33.71;22.06;101542.25;5012502;28;20038;-95
2022/06/03 09:43:03;;;;;;;4.15;3.70;;;;;;;33.67;21.08;101541.84;5010886;28;20033;-94
2022/06/03 09:45:29;;;;;;;4.05;3.15;;;;;;;32.99;21.78;101541.16;5012533;28;20034;-92
2022/06/03 09:47:55;;;;;;;3.30;3.00;;;;;;;32.94;21.24;101544.53;5012256;28;20029;-94
2022/06/03 09:50:24;;;;;;;4.82;3.70;;;;;;;32.93;21.53;101553.00;5013892;28;20033;-92
2022/06/03 09:52:58;;;;;;;3.70;3.35;;;;;;;32.54;21.29;101540.75;5009690;28;20033;-93
2022/06/03 09:55:31;;;;;;;4.68;3.35;;;;;;;32.77;21.90;101532.13;5014198;28;20038;-93
2022/06/03 09:57:58;;;;;;;;;;;;;;;34.65;22.79;101536.25;5011542;28;20029;-94
2022/06/03 10:00:28;;;;;;;3.65;3.35;;;;;;;34.94;19.04;101533.97;5015022;28;19937;-93
2022/06/03 10:02:56;;;;;;;4.75;3.20;;;;;;;35.37;18.96;101536.06;5010624;28;20026;-93
2022/06/03 10:05:22;;;;;;;4.88;3.13;;;;;;;34.65;18.87;101524.34;5013424;28;20065;-92
2022/06/03 10:07:51;;;;;;;3.00;2.70;;;;;;;35.06;18.16;101537.75;5011197;28;20495;-91
2022/06/03 10:13:06;;;;;;;2.95;2.20;;;;;;;35.41;17.40;101526.22;5010977;28;20096;-93
2022/06/03 10:15:40;;;;;;;2.75;2.55;;;;;;;36.03;16.49;101529.91;5011892;28;20022;-94
2022/06/03 10:18:11;;;;;;;3.17;2.25;;;;;;;36.39;17.23;101529.03;5011459;28;20072;-93
2022/06/03 10:20:38;;;;;;;2.88;2.67;;;;;;;36.52;16.81;101528.06;5009545;28;20041;-93
2022/06/03 10:23:05;;;;;;;3.80;2.53;;;;;;;36.72;16.22;101515.84;5011122;28;20084;-93
2022/06/03 10:25:31;;;;;;;3.63;2.95;;;;;;;36.69;15.50;101524.63;5015123;28;20042;-94
2022/06/03 10:28:02;;;;;;;3.60;2.95;;;;;;;36.75;16.52;101507.06;5011399;28;20040;-95
2022/06/03 10:30:30;;;;;;;3.17;2.88;;;;;;;37.17;15.63;101509.88;5009933;28;20395;-92
2022/06/03 10:32:56;;;;;;;3.17;2.22;;;;;;;36.93;15.66;101514.50;5010568;28;20113;-92
2022/06/03 10:35:27;;;;;;;3.15;2.85;;;;;;;35.74;16.55;101509.31;5000415;28;20177;-91
2022/06/03 10:37:58;;;;;;;3.38;3.08;;;;;;;35.75;17.00;101521.25;4991807;28;20053;-93
2022/06/03 10:40:26;;;;;;;3.03;2.75;;;;;;;36.28;16.16;101509.56;4995713;28;20038;-94
2022/06/03 10:42:56;;;;;;;2.85;2.63;;;;;;;35.95;16.47;101509.94;5010399;28;20100;-93
2022/06/03 10:45:31;;;;;;;4.45;2.80;;;;;;;35.93;16.98;101502.72;5011062;28;20034;-92
2022/06/03 10:47:56;;;;;;;2.63;2.42;;;;;;;35.73;17.38;101498.47;5014892;28;20030;-95
2022/06/03 10:50:35;;;;;;;3.22;2.88;;;;;;;35.79;17.59;101503.09;5011712;28;20037;-96
2022/06/03 11:01:32;;;;;;;2.70;2.50;;;;;;;36.92;15.64;101510.00;5025104;28;20420;-93
2022/06/03 11:03:58;;;;;;;2.38;2.22;;;;;;;36.69;15.88;101508.00;5021243;28;20057;-93
2022/06/03 11:06:31;;;;;;;2.80;2.40;;;;;;;36.59;16.19;101498.31;5014868;28;20072;-92
2022/06/03 11:09:00;;;;;;;3.17;2.40;;;;;;;36.35;16.16;101504.81;5014413;28;20030;-94
2022/06/03 11:11:43;;;;;;;2.13;1.92;;;;;;;35.33;17.55;101488.59;5009022;28;20040;-92
2022/06/03 11:14:21;;;;;;;2.17;2.03;;;;;;;35.77;16.95;101495.00;5010939;28;20030;-94
2022/06/03 11:17:11;;;;;;;2.25;2.05;;;;;;;36.48;17.72;101493.56;5014692;28;20026;-93
2022/06/03 11:19:44;;;;;;;2.67;2.22;;;;;;;36.50;16.37;101499.75;5013951;28;20084;-93
2022/06/03 11:22:21;;;;;;;4.38;1.90;;;;;;;36.42;16.14;101497.25;5009120;28;20057;-92
2022/06/03 11:24:51;;;;;;;2.75;2.03;;;;;;;35.28;17.04;101498.63;5009694;28;20033;-91
2022/06/03 11:27:20;;;;;;;2.45;2.25;;;;;;;32.80;18.69;101487.63;5010485;28;20040;-92
2022/06/03 11:29:49;;;;;;;3.25;1.90;;;;;;;31.97;20.52;101492.34;5010318;28;20029;-93
2022/06/03 11:32:17;;;;;;;4.05;1.70;;;;;;;32.91;18.54;101484.25;5009677;28;20479;-94
2022/06/03 11:34:50;;;;;;;1.98;1.48;;;;;;;34.22;18.16;101486.28;5011780;28;20026;-90
2022/06/03 11:37:21;;;;;;;1.80;1.70;;;;;;;34.61;16.97;101479.75;5012340;28;20485;-93
2022/06/03 11:39:55;;;;;;;2.33;2.00;;;;;;;34.44;17.52;101478.50;5014256;28;20030;-94
2022/06/03 11:43:03;;;;;;;2.58;2.10;;;;;;;34.78;18.04;101484.72;5009520;28;20513;-95
2022/06/03 11:45:38;;;;;;;2.45;2.13;;;;;;;36.58;16.55;101485.53;5013281;28;20102;-93
2022/06/03 11:48:05;;;;;;;2.40;2.20;;;;;;;37.38;15.63;101487.91;5010680;28;20033;-93
2022/06/03 11:50:32;;;;;;;4.00;2.10;;;;;;;37.87;14.59;101477.44;5008908;28;20422;-92
2022/06/03 11:52:58;;;;;;;2.55;2.13;;;;;;;38.11;14.49;101477.38;5008695;28;20029;-96
2022/06/03 11:55:26;;;;;;;2.70;2.40;;;;;;;37.86;14.66;101489.63;5011489;28;20029;-92
2022/06/03 11:58:02;;;;;;;2.53;2.33;;;;;;;38.09;15.17;101490.69;5009744;28;20567;-90
2022/06/03 12:00:33;;;;;;;2.38;2.17;;;;;;;37.85;14.41;101479.56;5008870;28;20030;-92
2022/06/03 12:03:24;;;;;;;2.30;2.10;;;;;;;36.59;16.15;101491.94;5009887;28;20082;-94
2022/06/03 12:05:58;;;;;;;3.45;2.08;;;;;;;36.58;15.90;101485.53;5012375;28;20022;-96
2022/06/03 12:08:39;;;;;;;3.35;1.90;;;;;;;36.72;15.59;101477.03;5010057;28;20085;-95
2022/06/03 12:14:29;;;;;;;2.38;2.17;;;;;;;35.66;15.92;101476.41;4990385;28;20042;-93
2022/06/03 12:17:11;;;;;;;1.92;1.80;;;;;;;36.07;16.49;101481.25;4991346;28;20392;-94
2022/06/03 12:19:48;;;;;;;2.15;1.95;;;;;;;36.46;15.62;101475.50;4989076;28;20152;-93
2022/06/03 12:22:14;;;;;;;3.05;2.03;;;;;;;35.43;16.33;101466.78;4998999;28;20037;-93
2022/06/03 12:24:42;;;;;;;4.68;2.25;;;;;;;34.19;16.99;101470.97;5007520;28;20041;-93
2022/06/03 12:27:16;;;;;;;3.95;2.08;;;;;;;33.79;18.17;101461.97;5013654;28;20026;-94
2022/06/03 12:29:51;;;;;;;2.47;2.28;;;;;;;33.47;18.35;101452.69;5008867;28;20480;-95
2022/06/03 12:32:25;;;;;;;2.50;2.20;;;;;;;32.61;19.54;101461.72;5008695;28;20050;-93
2022/06/03 12:34:50;;;;;;;3.00;2.70;;;;;;;32.21;19.32;101458.81;5008992;28;20393;-94
2022/06/03 12:37:28;;;;;;;2.40;2.15;;;;;;;32.43;19.77;101455.94;5008716;28;20056;-93
2022/06/03 12:40:19;;;;;;;2.75;1.98;;;;;;;33.61;19.52;101448.84;5008574;28;20399;-94
2022/06/03 12:42:45;;;;;;;3.38;2.60;;;;;;;35.16;16.76;101448.75;5009669;28;20037;-93
2022/06/03 12:45:13;;;;;;;2.40;2.20;;;;;;;35.82;17.10;101453.59;5008936;28;20022;-92
2022/06/03 12:47:48;;;;;;;2.70;2.50;;;;;;;35.80;17.24;101454.94;5009093;28;20065;-93